Time;durP1;ratioP1;P1;durP2;ratioP2;P2;SDS_P1;SDS_P2;PMS_P1;PMS_P2;Temp;Humidity;BMP_temperature;BMP_pressure;BME280_temperature;BME280_humidity;BME280_pressure;Samples;Min_cycle;Max_cycle;Signal;HPM_P1;HPM_P2
2023/05/29 00:00:31;;;;;;;14.40;7.37;;;;;;;-143.21;84.29;72004.75;4975059;28;20640;-80
2023/05/29 00:03:01;;;;;;;14.97;8.87;;;;;;;-143.21;84.09;72006.75;4975789;28;20220;-79
2023/05/29 00:05:28;;;;;;;17.20;8.87;;;;;;;-143.21;84.41;72020.63;4975275;28;20217;-79
2023/05/29 00:07:55;;;;;;;14.20;9.43;;;;;;;-143.21;84.41;72014.69;4972419;28;20624;-80
2023/05/29 00:10:22;;;;;;;16.73;9.20;;;;;;;-143.21;84.19;72010.72;4975381;28;20315;-79
2023/05/29 00:12:49;;;;;;;15.10;8.60;;;;;;;-143.21;84.04;72008.72;4975900;28;20734;-80
2023/05/29 00:15:15;;;;;;;18.83;9.33;;;;;;;-143.21;83.46;72006.75;4975401;28;20208;-80
2023/05/29 00:17:43;;;;;;;13.50;9.33;;;;;;;-143.21;83.41;72006.75;4956686;28;20208;-79
2023/05/29 00:20:12;;;;;;;19.30;9.60;;;;;;;-143.21;83.56;72018.63;4973109;28;20291;-79
2023/05/29 00:22:39;;;;;;;16.13;9.93;;;;;;;-143.21;83.36;72012.69;4975171;28;20649;-79
2023/05/29 00:25:07;;;;;;;17.07;9.27;;;;;;;-143.21;83.70;72014.69;4961749;28;20197;-79
2023/05/29 00:27:34;;;;;;;15.27;8.90;;;;;;;-143.21;83.71;72024.59;4966898;28;20216;-79
2023/05/29 00:30:01;;;;;;;14.27;8.80;;;;;;;-143.21;83.56;72018.63;4974752;28;20236;-81
2023/05/29 00:32:28;;;;;;;14.10;8.97;;;;;;;-143.21;83.75;72014.69;4973767;28;20217;-80
2023/05/29 00:34:55;;;;;;;13.07;8.40;;;;;;;-143.21;83.78;72016.66;4972147;28;20655;-80
2023/05/29 00:37:24;;;;;;;13.20;7.93;;;;;;;-143.21;83.62;72010.72;4970175;28;20236;-79
2023/05/29 00:39:51;;;;;;;14.60;7.83;;;;;;;-143.21;83.88;72008.72;4970062;28;20196;-79
2023/05/29 00:42:18;;;;;;;10.67;6.90;;;;;;;-143.21;84.24;72018.63;4970344;28;20205;-80
2023/05/29 00:44:46;;;;;;;11.73;7.27;;;;;;;-143.21;84.23;72010.72;4970482;28;20204;-80
2023/05/29 00:47:13;;;;;;;13.13;7.50;;;;;;;-143.21;84.00;72006.75;4967738;28;20632;-80
2023/05/29 00:49:40;;;;;;;24.83;7.53;;;;;;;-143.21;83.66;72018.63;4970402;28;20283;-80
2023/05/29 00:52:10;;;;;;;9.73;6.53;;;;;;;-143.21;83.40;72030.53;4968818;28;20213;-80
2023/05/29 00:54:38;;;;;;;9.43;6.77;;;;;;;-143.21;83.64;72034.50;4970220;28;20597;-80
2023/05/29 00:57:06;;;;;;;10.50;6.47;;;;;;;-143.21;83.93;72046.41;4969151;28;20217;-80
2023/05/29 00:59:35;;;;;;;12.47;6.50;;;;;;;-143.21;84.27;72046.41;4968951;28;20212;-80
2023/05/29 01:02:03;;;;;;;16.70;6.90;;;;;;;-143.21;85.00;72048.38;4972066;28;20208;-81
2023/05/29 01:04:33;;;;;;;11.17;6.90;;;;;;;-143.21;85.41;72050.38;4972187;28;20539;-81
2023/05/29 01:07:02;;;;;;;9.10;6.47;;;;;;;-143.21;85.07;72038.47;4972381;28;20219;-77
2023/05/29 01:09:30;;;;;;;11.83;6.93;;;;;;;-143.21;84.67;72042.44;4971275;28;20332;-77
2023/05/29 01:12:18;;;;;;;10.40;6.47;;;;;;;-143.21;84.95;72040.44;4971314;28;20688;-77
2023/05/29 01:14:57;;;;;;;10.40;7.20;;;;;;;-143.21;84.65;72036.50;4969427;28;20668;-77
2023/05/29 01:17:32;;;;;;;19.53;7.00;;;;;;;-143.21;85.05;72040.44;4970137;28;20612;-77
2023/05/29 01:20:19;;;;;;;13.93;6.77;;;;;;;-143.21;84.62;72044.41;4971005;28;20275;-78
2023/05/29 01:23:10;;;;;;;11.07;6.47;;;;;;;-143.21;84.62;72048.38;4969083;28;20215;-77
2023/05/29 01:25:51;;;;;;;15.23;7.00;;;;;;;-143.21;84.95;72058.31;4971142;28;20197;-76
2023/05/29 01:28:23;;;;;;;9.97;6.57;;;;;;;-143.21;85.36;72066.22;4969219;28;20216;-76
2023/05/29 01:30:51;;;;;;;9.10;6.70;;;;;;;-143.21;85.38;72064.25;4970998;28;20209;-77
2023/05/29 01:33:18;;;;;;;11.07;6.70;;;;;;;-143.21;85.22;72066.22;4970663;28;20563;-77
2023/05/29 01:35:45;;;;;;;10.40;7.10;;;;;;;-143.21;85.84;72066.22;4971159;28;20207;-81
2023/05/29 01:38:12;;;;;;;13.97;6.73;;;;;;;-143.21;85.08;72070.19;4971965;28;20267;-81
2023/05/29 01:40:39;;;;;;;13.63;7.30;;;;;;;-143.21;85.00;72072.19;4972217;28;20205;-81
2023/05/29 01:43:06;;;;;;;12.30;7.20;;;;;;;-143.21;85.30;72074.16;4970177;28;20214;-77
2023/05/29 01:45:36;;;;;;;11.07;7.17;;;;;;;-143.21;84.83;72064.25;4969873;28;20291;-78
2023/05/29 01:48:03;;;;;;;9.97;7.07;;;;;;;-143.21;84.74;72076.16;4970542;28;20692;-77
2023/05/29 01:50:30;;;;;;;9.60;6.37;;;;;;;-143.21;85.59;72074.16;4969482;28;20232;-75
2023/05/29 01:52:57;;;;;;;13.60;6.97;;;;;;;-143.21;85.86;72064.25;4970308;28;20213;-76
2023/05/29 01:55:24;;;;;;;12.33;6.77;;;;;;;-143.21;85.58;72058.31;4970634;28;20200;-75
2023/05/29 01:57:52;;;;;;;18.23;7.63;;;;;;;-143.21;85.20;72064.25;4970424;28;20208;-76
2023/05/29 02:00:20;;;;;;;12.23;6.87;;;;;;;-143.21;85.49;72072.19;4969571;28;20201;-76
2023/05/29 02:02:48;;;;;;;15.20;6.53;;;;;;;-143.21;85.91;72094.00;4970400;28;20612;-76
2023/05/29 02:05:15;;;;;;;14.43;6.80;;;;;;;-143.21;86.85;72113.81;4969940;28;20603;-76
2023/05/29 02:07:42;;;;;;;12.83;6.70;;;;;;;-143.21;87.37;72117.78;4970540;28;20211;-76
2023/05/29 02:10:10;;;;;;;12.73;6.90;;;;;;;-143.21;87.90;72121.75;4970250;28;20229;-76
2023/05/29 02:12:37;;;;;;;17.27;7.30;;;;;;;-143.21;88.01;72117.78;4969601;28;20259;-76
2023/05/29 02:15:04;;;;;;;14.13;7.10;;;;;;;-143.21;88.27;72117.78;4970725;28;20212;-76
2023/05/29 02:17:31;;;;;;;12.23;7.20;;;;;;;-143.21;88.44;72117.78;4970893;28;20215;-76
2023/05/29 02:20:00;;;;;;;14.80;7.07;;;;;;;-143.21;88.95;72123.75;4970363;28;20236;-76
2023/05/29 02:22:27;;;;;;;14.37;6.67;;;;;;;-143.21;89.14;72113.81;4969646;28;20224;-76
2023/05/29 02:24:54;;;;;;;17.27;7.40;;;;;;;-143.21;89.58;72115.81;4970219;28;20232;-77
2023/05/29 02:27:21;;;;;;;14.90;7.50;;;;;;;-143.21;89.48;72109.84;4969912;28;20263;-76
2023/05/29 02:29:47;;;;;;;12.00;7.00;;;;;;;-143.21;89.55;72097.97;4969843;28;20292;-76
2023/05/29 02:32:14;;;;;;;14.60;6.73;;;;;;;-143.21;88.82;72092.00;4969706;28;20208;-76
2023/05/29 02:34:42;;;;;;;16.07;7.07;;;;;;;-143.21;88.29;72090.03;4969965;28;20241;-76
2023/05/29 02:37:10;;;;;;;14.83;7.47;;;;;;;-143.21;88.21;72088.03;4970102;28;20219;-76
2023/05/29 02:39:37;;;;;;;12.73;7.50;;;;;;;-143.21;88.03;72084.06;4967146;28;20208;-76
2023/05/29 02:42:05;;;;;;;11.07;6.77;;;;;;;-143.21;87.55;72072.19;4970648;28;20224;-77
2023/05/29 02:44:32;;;;;;;11.50;7.63;;;;;;;-143.21;87.29;72076.16;4969314;28;20321;-76
2023/05/29 02:46:59;;;;;;;14.60;7.10;;;;;;;-143.21;87.74;72080.13;4970035;28;20782;-76
2023/05/29 02:49:26;;;;;;;17.80;7.23;;;;;;;-143.21;87.30;72076.16;4969555;28;21178;-76
2023/05/29 02:51:56;;;;;;;11.07;6.63;;;;;;;-143.21;87.40;72074.16;4969585;28;20630;-77
2023/05/29 02:54:25;;;;;;;13.27;7.20;;;;;;;-143.21;87.46;72078.13;4969610;28;20205;-77
2023/05/29 02:56:52;;;;;;;18.97;6.97;;;;;;;-143.21;87.44;72070.19;4969897;28;20232;-77
2023/05/29 02:59:18;;;;;;;16.13;7.80;;;;;;;-143.21;87.49;72080.13;4968846;28;20216;-77
2023/05/29 03:01:47;;;;;;;13.77;6.87;;;;;;;-143.21;87.43;72076.16;4968544;28;20197;-77
2023/05/29 03:04:14;;;;;;;12.80;7.30;;;;;;;-143.21;87.32;72080.13;4968440;28;20208;-77
2023/05/29 03:06:41;;;;;;;15.03;7.60;;;;;;;-143.21;87.41;72074.16;4968945;28;20205;-77
2023/05/29 03:09:07;;;;;;;14.50;7.00;;;;;;;-143.21;87.30;72066.22;4969530;28;20196;-77
2023/05/29 03:11:37;;;;;;;13.67;7.83;;;;;;;-143.21;86.25;72064.25;4967041;28;20224;-77
2023/05/29 03:14:04;;;;;;;22.47;7.77;;;;;;;-143.21;86.25;72068.22;4966142;28;20239;-77
2023/05/29 03:16:31;;;;;;;20.37;8.00;;;;;;;-143.21;86.82;72078.13;4969270;28;20212;-77
2023/05/29 03:18:58;;;;;;;17.37;7.60;;;;;;;-143.21;87.19;72078.13;4969461;28;20241;-77
2023/05/29 03:21:25;;;;;;;18.40;8.10;;;;;;;-143.21;87.61;72088.03;4968969;28;20209;-77
2023/05/29 03:23:52;;;;;;;15.50;7.63;;;;;;;-143.21;88.24;72086.06;4968925;28;20620;-77
2023/05/29 03:26:19;;;;;;;16.40;7.57;;;;;;;-143.21;88.06;72078.13;4968975;28;20738;-77
2023/05/29 03:28:47;;;;;;;15.00;7.80;;;;;;;-143.21;87.87;72074.16;4969192;28;20211;-77
2023/05/29 03:31:14;;;;;;;21.77;9.33;;;;;;;-143.21;87.63;72078.13;4951540;28;20703;-77
2023/05/29 03:33:41;;;;;;;20.97;10.23;;;;;;;-143.21;87.08;72082.09;4967278;28;20243;-77
2023/05/29 03:36:08;;;;;;;19.77;8.77;;;;;;;-143.21;87.53;72095.97;4968327;28;20215;-77
2023/05/29 03:38:35;;;;;;;25.73;9.00;;;;;;;-143.21;88.24;72105.91;4968870;28;20637;-76
2023/05/29 03:41:02;;;;;;;22.50;9.37;;;;;;;-143.21;88.77;72101.94;4969006;28;20213;-77
2023/05/29 03:43:29;;;;;;;20.23;8.80;;;;;;;-143.21;88.47;72097.97;4968326;28;20220;-76
2023/05/29 03:45:57;;;;;;;21.07;8.87;;;;;;;-143.21;88.81;72109.84;4968330;28;20220;-78
2023/05/29 03:48:24;;;;;;;19.07;8.80;;;;;;;-143.21;88.31;72101.94;4967928;28;20201;-76
2023/05/29 03:50:51;;;;;;;22.73;8.80;;;;;;;-143.21;88.48;72107.88;4968185;28;20311;-76
2023/05/29 03:53:17;;;;;;;18.83;9.27;;;;;;;-143.21;88.83;72103.91;4967732;28;20205;-76
2023/05/29 03:55:44;;;;;;;13.50;8.40;;;;;;;-143.21;89.21;72095.97;4967269;28;20208;-77
2023/05/29 03:58:12;;;;;;;14.67;8.80;;;;;;;-143.21;89.21;72092.00;4967891;28;20656;-77
2023/05/29 04:00:39;;;;;;;16.10;9.43;;;;;;;-143.21;89.55;72084.06;4968260;28;20664;-76
2023/05/29 04:03:07;;;;;;;16.67;8.70;;;;;;;-143.21;88.80;72072.19;4968599;28;20664;-76
2023/05/29 04:05:34;;;;;;;19.97;8.70;;;;;;;-143.21;88.85;72072.19;4968145;28;20672;-76
2023/05/29 04:08:04;;;;;;;19.30;8.70;;;;;;;-143.21;89.02;72072.19;4968926;28;20900;-76
2023/05/29 04:10:33;;;;;;;21.80;9.30;;;;;;;-143.21;89.01;72064.25;4968980;28;20213;-77
2023/05/29 04:13:00;;;;;;;23.00;8.83;;;;;;;-143.21;89.15;72052.34;4972520;28;20726;-78
2023/05/29 04:15:27;;;;;;;17.53;9.40;;;;;;;-143.21;88.83;72046.41;4971595;28;20236;-78
2023/05/29 04:17:54;;;;;;;21.10;9.07;;;;;;;-143.21;88.66;72036.50;4972975;28;20201;-79
2023/05/29 04:20:22;;;;;;;17.10;8.73;;;;;;;-143.21;88.55;72012.69;4971863;28;20204;-80
2023/05/29 04:22:49;;;;;;;21.47;10.00;;;;;;;-143.21;88.20;72016.66;4972108;28;20220;-80
2023/05/29 04:25:17;;;;;;;29.07;10.40;;;;;;;-143.21;88.31;72008.72;4972178;28;20219;-83
2023/05/29 04:27:48;;;;;;;26.90;10.97;;;;;;;-143.21;87.98;72002.78;4973365;28;20780;-82
2023/05/29 04:30:16;;;;;;;19.00;9.60;;;;;;;-143.21;87.48;72000.78;4973579;28;20196;-84
2023/05/29 04:32:43;;;;;;;27.70;10.97;;;;;;;-143.21;86.69;71986.91;4972876;28;20208;-83
2023/05/29 04:35:10;;;;;;;20.43;11.03;;;;;;;-143.21;86.30;71990.88;4968278;28;20205;-82
2023/05/29 04:37:39;;;;;;;26.17;10.80;;;;;;;-143.21;85.88;71980.97;4974358;28;20204;-82
2023/05/29 04:40:08;;;;;;;24.37;12.10;;;;;;;-143.21;85.72;71986.91;4970717;28;20589;-82
2023/05/29 04:42:35;;;;;;;26.40;12.90;;;;;;;-143.21;85.57;71980.97;4974073;28;20208;-82
2023/05/29 04:45:03;;;;;;;24.50;12.50;;;;;;;-143.21;85.66;71977.00;4970652;28;20221;-83
2023/05/29 04:47:32;;;;;;;25.03;12.47;;;;;;;-143.21;85.41;71969.06;4973922;28;20219;-83
2023/05/29 04:50:00;;;;;;;20.90;12.20;;;;;;;-143.21;84.72;71955.19;4974225;28;20201;-81
2023/05/29 04:52:26;;;;;;;28.40;12.50;;;;;;;-143.21;85.14;71967.09;4974525;28;20279;-81
2023/05/29 04:54:56;;;;;;;19.37;11.13;;;;;;;-143.21;84.86;71961.13;4974012;28;20311;-82
2023/05/29 04:57:23;;;;;;;23.37;11.20;;;;;;;-143.21;84.77;71965.09;4973907;28;20629;-81
2023/05/29 04:59:50;;;;;;;25.67;11.53;;;;;;;-143.21;84.67;71957.16;4973247;28;20672;-82
2023/05/29 05:02:16;;;;;;;19.00;11.13;;;;;;;-143.21;84.96;71963.13;4973836;28;20192;-82
2023/05/29 05:04:45;;;;;;;21.57;10.50;;;;;;;-143.21;85.02;71980.97;4973807;28;20668;-81
2023/05/29 05:07:12;;;;;;;25.67;10.50;;;;;;;-143.21;85.17;71969.06;4973234;28;20219;-82
2023/05/29 05:09:38;;;;;;;19.50;10.13;;;;;;;-143.21;85.09;71978.97;4972467;28;20201;-81
2023/05/29 05:12:07;;;;;;;20.27;9.87;;;;;;;-143.21;84.82;71971.06;4973096;28;20216;-82
2023/05/29 05:14:35;;;;;;;16.87;9.37;;;;;;;-143.21;85.01;71978.97;4968347;28;20215;-81
2023/05/29 05:17:02;;;;;;;15.60;8.70;;;;;;;-143.21;84.41;71978.97;4972314;28;20201;-82
2023/05/29 05:19:29;;;;;;;17.70;8.90;;;;;;;-143.21;83.97;71965.09;4969689;28;20684;-82
2023/05/29 05:21:55;;;;;;;24.97;10.20;;;;;;;-143.21;83.75;71967.09;4971880;28;20935;-81
2023/05/29 05:24:22;;;;;;;22.43;9.93;;;;;;;-143.21;83.54;71963.13;4972220;28;20234;-82
2023/05/29 05:26:49;;;;;;;17.37;9.47;;;;;;;-143.21;83.63;71961.13;4972224;28;20211;-81
2023/05/29 05:29:18;;;;;;;18.30;9.93;;;;;;;-143.21;83.40;71949.25;4971913;28;20204;-82
2023/05/29 05:31:44;;;;;;;17.57;9.33;;;;;;;-143.21;83.23;71939.31;4971921;28;20609;-81
2023/05/29 05:34:11;;;;;;;17.20;9.17;;;;;;;-143.21;82.84;71929.41;4968767;28;20241;-82
2023/05/29 05:36:38;;;;;;;20.00;9.67;;;;;;;-143.21;82.66;71931.38;4972496;28;20294;-81
2023/05/29 05:39:05;;;;;;;18.33;9.83;;;;;;;-143.21;82.68;71933.38;4972784;28;20227;-81
2023/05/29 05:41:32;;;;;;;21.40;9.60;;;;;;;-143.21;82.64;71927.44;4967794;28;20205;-81
2023/05/29 05:43:58;;;;;;;19.50;9.37;;;;;;;-143.21;82.26;71913.53;4970596;28;20213;-81
2023/05/29 05:46:27;;;;;;;19.40;8.70;;;;;;;-143.21;82.00;71913.53;4971167;28;20684;-81
2023/05/29 05:48:56;;;;;;;18.80;9.53;;;;;;;-143.21;82.26;71903.63;4971742;28;20216;-81
2023/05/29 05:51:23;;;;;;;18.80;9.50;;;;;;;-143.21;82.13;71895.69;4970850;28;20283;-81
2023/05/29 05:53:50;;;;;;;19.50;9.50;;;;;;;-143.21;81.71;71899.66;4971585;28;20211;-81
2023/05/29 05:56:17;;;;;;;16.30;8.67;;;;;;;-143.21;81.74;71893.72;4971859;28;20201;-81
2023/05/29 05:58:44;;;;;;;27.27;9.67;;;;;;;-143.21;81.89;71893.72;4972935;28;20231;-82
2023/05/29 06:01:11;;;;;;;17.07;8.57;;;;;;;-143.21;81.49;71889.75;4972142;28;20211;-81
2023/05/29 06:03:39;;;;;;;15.10;8.73;;;;;;;-143.21;81.05;71875.88;4972718;28;20664;-82
2023/05/29 06:06:06;;;;;;;17.77;8.60;;;;;;;-143.21;80.75;71863.97;4971622;28;20565;-79
2023/05/29 06:08:33;;;;;;;15.67;8.33;;;;;;;-143.21;79.99;71848.09;4967509;28;20266;-79
2023/05/29 06:11:00;;;;;;;10.87;7.60;;;;;;;-143.21;79.97;71840.19;4971578;28;20219;-78
2023/05/29 06:13:27;;;;;;;12.60;7.73;;;;;;;-143.21;79.65;71836.22;4971091;28;20721;-79
2023/05/29 06:15:54;;;;;;;12.57;7.70;;;;;;;-143.21;79.49;71836.22;4970692;28;20651;-78
2023/05/29 06:18:21;;;;;;;15.00;8.10;;;;;;;-143.21;79.02;71830.25;4970543;28;20275;-78
2023/05/29 06:20:49;;;;;;;15.47;7.23;;;;;;;-143.21;78.87;71844.16;4970157;28;20657;-79
2023/05/29 06:23:17;;;;;;;8.43;5.40;;;;;;;-143.21;78.48;71838.19;4967504;28;20212;-78
2023/05/29 06:25:44;;;;;;;9.53;6.63;;;;;;;-143.21;78.49;71828.28;4967179;28;20723;-78
2023/05/29 06:28:10;;;;;;;17.13;7.23;;;;;;;-143.21;78.39;71832.25;4970985;28;20626;-78
2023/05/29 06:30:37;;;;;;;10.53;5.63;;;;;;;-143.21;77.90;71818.38;4970743;28;20802;-78
2023/05/29 06:33:04;;;;;;;9.43;5.17;;;;;;;-143.21;77.68;71804.47;4969982;28;20653;-79
2023/05/29 06:35:31;;;;;;;11.38;5.22;;;;;;;-143.21;77.46;71796.56;4968791;28;20223;-76
2023/05/29 06:37:59;;;;;;;8.50;5.37;;;;;;;-143.21;77.45;71784.66;4970066;28;20221;-76
2023/05/29 06:40:26;;;;;;;9.63;5.17;;;;;;;-143.21;77.78;71766.81;4969401;28;20830;-76
2023/05/29 06:42:53;;;;;;;9.85;5.30;;;;;;;-143.21;77.24;71754.91;4969056;28;20205;-76
2023/05/29 06:45:19;;;;;;;9.07;5.72;;;;;;;-143.21;76.30;71741.03;4969111;28;20205;-76
2023/05/29 06:47:46;;;;;;;11.15;5.28;;;;;;;-143.21;75.31;71741.03;4968817;28;20216;-75
2023/05/29 06:50:14;;;;;;;11.27;5.50;;;;;;;-143.21;75.51;71741.03;4968909;28;20200;-75
2023/05/29 06:52:41;;;;;;;11.40;4.85;;;;;;;-143.21;75.54;71729.13;4969433;28;20233;-76
2023/05/29 06:55:10;;;;;;;8.85;4.40;;;;;;;-143.21;75.44;71721.22;4969629;28;20523;-75
2023/05/29 06:57:37;;;;;;;8.10;4.53;;;;;;;-143.21;75.12;71711.28;4969666;28;20209;-75
2023/05/29 07:00:05;;;;;;;9.75;4.55;;;;;;;-143.21;75.17;71703.34;4969221;28;20212;-75
2023/05/29 07:02:32;;;;;;;9.07;4.07;;;;;;;-143.21;75.33;71699.41;4968914;28;20262;-77
2023/05/29 07:04:59;;;;;;;5.65;3.80;;;;;;;-143.21;75.21;71701.38;4968510;28;20204;-77
2023/05/29 07:07:25;;;;;;;5.20;3.50;;;;;;;-143.21;74.57;71681.56;4969227;28;20562;-77
2023/05/29 07:09:52;;;;;;;5.53;3.70;;;;;;;-143.21;74.64;71667.66;4969861;28;20603;-77
2023/05/29 07:12:22;;;;;;;6.18;3.53;;;;;;;-143.21;73.24;71647.84;4969089;28;20247;-77
2023/05/29 07:14:49;;;;;;;5.20;3.70;;;;;;;-143.21;73.33;71639.91;4969745;28;20287;-76
2023/05/29 07:17:16;;;;;;;4.97;3.20;;;;;;;-143.21;73.34;71631.97;4969493;28;20209;-77
2023/05/29 07:19:43;;;;;;;6.13;3.33;;;;;;;-143.21;73.44;71624.06;4968984;28;20287;-76
2023/05/29 07:22:10;;;;;;;5.03;2.40;;;;;;;-143.21;72.20;71614.13;4967330;28;20211;-82
2023/05/29 07:24:36;;;;;;;4.65;3.08;;;;;;;-143.21;71.55;71612.16;4970695;28;20205;-81
2023/05/29 07:27:03;;;;;;;3.00;2.50;;;;;;;-143.21;71.57;71622.06;4967648;28;20212;-80
2023/05/29 07:29:32;;;;;;;3.20;2.60;;;;;;;-143.21;70.89;71626.03;4970282;28;20296;-80
2023/05/29 07:31:58;;;;;;;7.18;2.88;;;;;;;-143.21;71.74;71631.97;4967668;28;20232;-84
2023/05/29 07:34:25;;;;;;;3.55;2.83;;;;;;;-143.21;72.48;71626.03;4962548;28;20243;-80
2023/05/29 07:37:01;;;;;;;5.80;2.85;;;;;;;-143.21;72.54;71618.09;4969132;28;20211;-80
2023/05/29 07:39:28;;;;;;;3.20;2.88;;;;;;;-143.21;71.94;71606.22;4971948;28;20196;-80
2023/05/29 07:41:54;;;;;;;7.63;3.17;;;;;;;-143.21;71.70;71590.34;4972235;28;20196;-81
2023/05/29 07:44:21;;;;;;;5.47;3.15;;;;;;;-143.21;71.35;71586.38;4972823;28;20208;-81
2023/05/29 07:46:50;;;;;;;4.30;3.45;;;;;;;-143.21;70.48;71588.38;4975707;28;20224;-81
2023/05/29 07:49:16;;;;;;;7.18;3.05;;;;;;;-143.21;70.93;71584.41;4975789;28;20204;-82
2023/05/29 07:51:43;;;;;;;5.07;3.03;;;;;;;-143.21;70.52;71584.41;4976393;28;20308;-83
2023/05/29 07:54:10;;;;;;;12.50;3.90;;;;;;;-143.21;70.81;71574.47;4975985;28;20573;-82
2023/05/29 07:56:38;;;;;;;5.47;3.40;;;;;;;-143.21;70.37;71564.56;4976202;28;20192;-82
2023/05/29 07:59:05;;;;;;;5.13;3.03;;;;;;;-143.21;70.51;71562.59;4976355;28;20252;-83
2023/05/29 08:01:32;;;;;;;6.68;3.65;;;;;;;-143.21;70.42;71558.63;4970458;28;20643;-82
2023/05/29 08:04:00;;;;;;;6.60;3.03;;;;;;;-143.21;69.55;71536.81;4956515;29;20202;-83
2023/05/29 08:06:27;;;;;;;4.55;3.15;;;;;;;-143.21;68.27;71530.88;4961100;28;20624;-82
2023/05/29 08:08:54;;;;;;;5.15;2.88;;;;;;;-143.21;68.13;71528.88;4975838;28;20185;-83
2023/05/29 08:11:22;;;;;;;5.47;3.05;;;;;;;-143.21;68.19;71524.91;4976125;28;20208;-84
2023/05/29 08:13:49;;;;;;;6.65;3.00;;;;;;;-143.21;68.39;71522.94;4976088;28;20204;-83
2023/05/29 08:16:16;;;;;;;5.68;2.88;;;;;;;-143.21;68.42;71530.88;4975928;28;20201;-83
2023/05/29 08:18:43;;;;;;;7.18;3.38;;;;;;;-143.21;68.78;71526.91;4975693;28;20220;-84
2023/05/29 08:21:12;;;;;;;5.57;3.33;;;;;;;-143.21;68.38;71524.91;4975290;28;20204;-83
2023/05/29 08:23:39;;;;;;;12.32;3.33;;;;;;;-143.21;68.63;71530.88;4975665;28;20208;-86
2023/05/29 08:26:06;;;;;;;5.07;3.30;;;;;;;-143.21;68.82;71540.78;4975290;28;20275;-84
2023/05/29 08:28:33;;;;;;;5.05;3.40;;;;;;;-143.21;68.55;71548.72;4964947;28;20312;-87
2023/05/29 08:31:00;;;;;;;6.18;4.18;;;;;;;-143.21;67.77;71558.63;4974014;28;20703;-82
2023/05/29 08:33:26;;;;;;;4.65;3.65;;;;;;;-143.21;67.62;71558.63;4974973;28;20319;-78
2023/05/29 08:35:53;;;;;;;5.60;3.60;;;;;;;-143.21;67.53;71554.66;4975185;28;20197;-79
2023/05/29 08:38:21;;;;;;;5.38;3.13;;;;;;;-143.21;67.58;71530.88;4975059;28;20553;-78
2023/05/29 08:40:49;;;;;;;4.32;3.40;;;;;;;-143.21;66.72;71507.06;4975150;28;20193;-77
2023/05/29 08:43:18;;;;;;;4.82;3.33;;;;;;;-143.21;66.87;71485.25;4974945;28;20212;-77
2023/05/29 08:45:45;;;;;;;4.15;3.30;;;;;;;-143.21;65.95;71459.47;4974982;28;20263;-78
2023/05/29 08:48:13;;;;;;;5.70;3.17;;;;;;;-143.21;66.59;71447.59;4974242;28;20204;-76
2023/05/29 08:50:46;;;;;;;9.10;3.60;;;;;;;-143.21;65.17;71429.75;4974988;28;20225;-78
2023/05/29 08:53:15;;;;;;;3.72;3.28;;;;;;;-143.21;65.32;71409.91;4975115;28;20307;-78
2023/05/29 08:55:43;;;;;;;8.05;3.70;;;;;;;-143.21;63.85;71392.06;4974456;28;20193;-76
2023/05/29 08:58:12;;;;;;;10.65;3.88;;;;;;;-143.21;62.89;71374.22;4974130;28;20215;-77
2023/05/29 09:00:40;;;;;;;14.57;3.80;;;;;;;-143.21;62.26;71372.25;4974500;28;20193;-78
2023/05/29 09:03:08;;;;;;;6.07;3.75;;;;;;;-143.21;60.89;71372.25;4975139;28;20193;-77
2023/05/29 09:05:39;;;;;;;3.83;3.10;;;;;;;-143.21;61.20;71356.38;4975005;28;20204;-77
2023/05/29 09:08:07;;;;;;;6.22;3.22;;;;;;;-143.21;60.55;71338.53;4975119;28;20197;-78
2023/05/29 09:10:34;;;;;;;4.40;3.30;;;;;;;-143.21;59.81;71340.53;4974786;28;20197;-78
2023/05/29 09:13:02;;;;;;;3.92;3.42;;;;;;;-143.21;60.35;71332.59;4974446;28;20240;-77
2023/05/29 09:15:29;;;;;;;6.00;3.28;;;;;;;-143.21;60.10;71320.69;4974214;28;20207;-77
2023/05/29 09:17:57;;;;;;;4.15;3.30;;;;;;;-143.21;60.23;71318.72;4974042;28;20653;-77
2023/05/29 09:20:25;;;;;;;5.35;3.20;;;;;;;-143.21;58.95;71314.75;4974184;28;20232;-77
2023/05/29 09:22:55;;;;;;;4.93;3.58;;;;;;;-143.21;58.84;71302.84;4974321;28;20204;-78
2023/05/29 09:25:26;;;;;;;4.70;3.22;;;;;;;-143.21;58.94;71279.06;4974514;28;20197;-78
2023/05/29 09:27:55;;;;;;;4.18;3.70;;;;;;;-143.21;57.92;71273.13;4974715;28;20201;-77
2023/05/29 09:30:40;;;;;;;5.00;3.50;;;;;;;-143.21;57.56;71290.97;4974003;28;20189;-78
2023/05/29 09:33:09;;;;;;;3.95;3.50;;;;;;;-143.21;57.99;71304.84;4974107;28;20243;-77
2023/05/29 09:35:37;;;;;;;5.13;3.40;;;;;;;-143.21;57.76;71302.84;4974184;28;20208;-78
2023/05/29 09:38:06;;;;;;;6.05;3.50;;;;;;;-143.21;58.19;71300.88;4973476;28;20585;-77
2023/05/29 09:40:33;;;;;;;4.10;3.60;;;;;;;-143.21;58.68;71283.03;4973479;28;20691;-78
2023/05/29 09:43:07;;;;;;;4.50;3.95;;;;;;;-143.21;59.08;71277.09;4973733;28;20194;-78
2023/05/29 09:45:37;;;;;;;4.90;4.00;;;;;;;-143.21;58.71;71271.13;4973877;28;20216;-83
2023/05/29 09:48:06;;;;;;;8.55;4.20;;;;;;;-143.21;58.66;71267.19;4974988;28;20257;-83
2023/05/29 09:50:34;;;;;;;4.90;3.60;;;;;;;-143.21;58.98;71247.34;4966195;28;20261;-82
2023/05/29 09:53:02;;;;;;;12.27;3.70;;;;;;;-143.21;57.95;71229.50;4974474;28;20227;-83
2023/05/29 09:55:31;;;;;;;3.97;3.30;;;;;;;-143.21;56.74;71221.56;4969815;28;20202;-83
2023/05/29 09:57:59;;;;;;;7.28;3.53;;;;;;;-143.21;56.37;71217.59;4955309;29;20221;-82
2023/05/29 10:00:27;;;;;;;4.90;3.75;;;;;;;-143.21;57.03;71187.88;4959248;28;20211;-83
2023/05/29 10:02:54;;;;;;;9.05;4.55;;;;;;;-143.21;56.43;71168.06;4973041;28;20731;-82
2023/05/29 10:05:22;;;;;;;6.93;3.80;;;;;;;-143.21;55.10;71160.13;4973981;28;20204;-83
2023/05/29 10:07:52;;;;;;;5.20;3.50;;;;;;;-143.21;55.27;71158.13;4973425;28;20192;-82
2023/05/29 10:10:20;;;;;;;6.15;4.00;;;;;;;-143.21;55.31;71175.97;4966778;28;20276;-83
2023/05/29 10:12:50;;;;;;;4.97;3.58;;;;;;;-143.21;55.51;71158.13;4954631;29;20276;-82
2023/05/29 10:15:20;;;;;;;4.53;3.58;;;;;;;-143.21;55.27;71130.38;4958445;28;20208;-82
2023/05/29 10:17:52;;;;;;;4.72;3.65;;;;;;;-143.21;53.70;71110.56;4973454;28;20200;-82
2023/05/29 10:20:23;;;;;;;5.70;4.10;;;;;;;-143.21;55.16;71078.84;4973367;28;20292;-82
2023/05/29 10:22:52;;;;;;;7.05;4.15;;;;;;;-143.21;55.10;71055.06;4973226;28;20193;-83
2023/05/29 10:25:21;;;;;;;7.07;4.20;;;;;;;-143.21;54.00;71025.31;4973647;28;20200;-83
2023/05/29 10:27:48;;;;;;;6.10;3.60;;;;;;;-143.21;52.51;71017.38;4973304;28;20228;-83
2023/05/29 10:30:26;;;;;;;6.97;3.97;;;;;;;-143.21;52.59;71005.50;4973454;28;20204;-84
2023/05/29 10:33:27;;;;;;;7.53;4.18;;;;;;;-143.21;51.88;70987.66;4973090;28;20316;-83
2023/05/29 10:36:04;;;;;;;6.13;3.55;;;;;;;-143.21;52.25;70979.72;4972890;28;20279;-83
2023/05/29 10:38:32;;;;;;;5.60;3.20;;;;;;;-143.21;51.34;70979.72;4973048;28;20194;-84
2023/05/29 10:41:29;;;;;;;5.20;3.15;;;;;;;-143.21;50.33;70983.69;4972938;28;20193;-83
2023/05/29 10:43:57;;;;;;;4.60;3.40;;;;;;;-143.21;51.00;71013.41;4972948;28;20263;-82
2023/05/29 10:47:02;;;;;;;4.30;3.10;;;;;;;-143.21;51.20;71007.47;4972693;28;20189;-84
2023/05/29 10:49:30;;;;;;;6.97;3.67;;;;;;;-143.21;50.60;70981.69;4972671;28;20204;-82
2023/05/29 10:51:59;;;;;;;6.18;3.67;;;;;;;-143.21;50.06;70961.88;4972862;28;20213;-83
2023/05/29 10:54:27;;;;;;;7.35;3.60;;;;;;;-143.21;49.84;70951.97;4973116;28;20224;-83
2023/05/29 10:56:57;;;;;;;3.80;3.10;;;;;;;-143.21;49.25;70973.78;4972637;28;20751;-82
2023/05/29 10:59:27;;;;;;;6.03;4.10;;;;;;;-143.21;49.72;70989.63;4972359;28;20205;-83
2023/05/29 11:01:54;;;;;;;6.10;4.10;;;;;;;-143.21;49.95;71017.38;4972329;28;20251;-83
2023/05/29 11:04:30;;;;;;;6.55;4.03;;;;;;;-143.21;50.19;71051.09;4972878;28;20205;-84
2023/05/29 11:06:58;;;;;;;7.07;3.80;;;;;;;-143.21;50.70;71064.97;4969071;28;20209;-84
2023/05/29 11:09:30;;;;;;;7.93;4.25;;;;;;;-143.21;51.20;71029.28;4953626;29;20194;-81
2023/05/29 11:12:33;;;;;;;6.65;3.90;;;;;;;-143.21;51.33;70977.72;4966247;28;20287;-82
2023/05/29 11:15:04;;;;;;;4.55;3.88;;;;;;;-143.21;49.42;70940.06;4973044;28;20545;-82
2023/05/29 11:17:32;;;;;;;7.35;4.00;;;;;;;-143.21;49.38;70900.41;4973076;28;20186;-82